Time;durP1;ratioP1;P1;durP2;ratioP2;P2;SDS_P1;SDS_P2;PMS_P1;PMS_P2;Temp;Humidity;BMP_temperature;BMP_pressure;BME280_temperature;BME280_humidity;BME280_pressure;Samples;Min_cycle;Max_cycle;Signal;HPM_P1;HPM_P2
2023/03/20 00:00:54;;;;;;;123.10;46.42;;;;;;;;;;4985942;28;20506;-70
2023/03/20 00:03:20;;;;;;;133.05;44.53;;;;;;;;;;5014578;28;20034;-70
2023/03/20 00:05:45;;;;;;;164.48;39.05;;;;;;;;;;5014848;28;20018;-69
2023/03/20 00:08:11;;;;;;;168.90;34.00;;;;;;;;;;5014659;28;20030;-69
2023/03/20 00:10:42;;;;;;;176.18;33.03;;;;;;;;;;5014509;28;20108;-70
2023/03/20 00:13:20;;;;;;;178.50;34.15;;;;;;;;;;5013613;28;20026;-69
2023/03/20 00:15:45;;;;;;;164.48;35.15;;;;;;;;;;5014376;28;20054;-69
2023/03/20 00:18:17;;;;;;;113.93;28.23;;;;;;;;;;5014451;28;20488;-67
2023/03/20 00:20:42;;;;;;;107.63;26.65;;;;;;;;;;5014418;28;20052;-69
2023/03/20 00:23:08;;;;;;;69.00;23.40;;;;;;;;;;5014465;28;20025;-69
2023/03/20 00:25:35;;;;;;;63.42;23.88;;;;;;;;;;5014397;28;20375;-69
2023/03/20 00:28:02;;;;;;;111.40;26.88;;;;;;;;;;5014280;28;20021;-69
2023/03/20 00:30:30;;;;;;;129.45;21.35;;;;;;;;;;5014136;28;20387;-69
2023/03/20 00:32:57;;;;;;;76.30;23.83;;;;;;;;;;5014298;28;20030;-69
2023/03/20 00:35:30;;;;;;;94.80;21.10;;;;;;;;;;5014176;28;20030;-69
2023/03/20 00:37:57;;;;;;;57.85;25.35;;;;;;;;;;5014239;28;20437;-69
2023/03/20 00:40:30;;;;;;;87.95;29.23;;;;;;;;;;5014141;28;20041;-69
2023/03/20 00:43:01;;;;;;;105.40;29.23;;;;;;;;;;5013987;28;20029;-69
2023/03/20 00:45:29;;;;;;;73.05;26.65;;;;;;;;;;5014023;28;20497;-69
2023/03/20 00:47:56;;;;;;;54.80;26.15;;;;;;;;;;5014133;28;20026;-69
2023/03/20 00:50:30;;;;;;;67.32;24.48;;;;;;;;;;5013818;28;20024;-69
2023/03/20 00:52:57;;;;;;;59.42;26.02;;;;;;;;;;5006474;28;20034;-69
2023/03/20 00:55:26;;;;;;;36.90;18.75;;;;;;;;;;4994265;28;20373;-69
2023/03/20 00:57:57;;;;;;;45.42;18.85;;;;;;;;;;4994025;28;20030;-69
2023/03/20 01:00:26;;;;;;;37.30;20.50;;;;;;;;;;4994249;28;20038;-69
2023/03/20 01:02:54;;;;;;;40.15;21.23;;;;;;;;;;4994240;28;20026;-69
2023/03/20 01:05:20;;;;;;;49.22;22.25;;;;;;;;;;4993949;28;20027;-69
2023/03/20 01:07:46;;;;;;;69.68;27.67;;;;;;;;;;4994157;28;20349;-69
2023/03/20 01:10:12;;;;;;;56.63;26.65;;;;;;;;;;4994009;28;20024;-69
2023/03/20 01:12:42;;;;;;;45.58;24.48;;;;;;;;;;4993756;28;20022;-69
2023/03/20 01:15:26;;;;;;;47.10;21.77;;;;;;;;;;4993773;28;20034;-69
2023/03/20 01:17:51;;;;;;;45.30;22.17;;;;;;;;;;4993934;28;20143;-69
2023/03/20 01:20:24;;;;;;;43.60;22.08;;;;;;;;;;4993726;28;20050;-69
2023/03/20 01:22:50;;;;;;;37.72;20.05;;;;;;;;;;4993561;28;20026;-69
2023/03/20 01:25:16;;;;;;;40.15;20.95;;;;;;;;;;4993902;28;20156;-69
2023/03/20 01:28:01;;;;;;;34.53;19.27;;;;;;;;;;4993527;28;20030;-69
2023/03/20 01:30:30;;;;;;;34.13;19.88;;;;;;;;;;4993793;28;20028;-69
2023/03/20 01:32:56;;;;;;;27.80;17.27;;;;;;;;;;4993742;28;20059;-69
2023/03/20 01:35:26;;;;;;;30.25;17.48;;;;;;;;;;4993695;28;20022;-69
2023/03/20 01:37:52;;;;;;;31.73;17.20;;;;;;;;;;4993526;28;20026;-69
2023/03/20 01:40:34;;;;;;;30.00;17.65;;;;;;;;;;4993580;28;20392;-69
2023/03/20 01:43:02;;;;;;;32.95;17.13;;;;;;;;;;4993336;28;20042;-69
2023/03/20 01:45:33;;;;;;;29.85;17.63;;;;;;;;;;4993493;28;20037;-69
2023/03/20 01:47:59;;;;;;;29.50;16.92;;;;;;;;;;4993637;28;20022;-69
2023/03/20 01:50:27;;;;;;;32.78;16.10;;;;;;;;;;4993410;28;20019;-70
2023/03/20 01:53:01;;;;;;;26.85;16.40;;;;;;;;;;4993404;28;20037;-69
2023/03/20 01:55:27;;;;;;;26.20;16.02;;;;;;;;;;4993453;28;20104;-69
2023/03/20 01:57:56;;;;;;;27.15;16.05;;;;;;;;;;4993214;28;20113;-69
2023/03/20 02:00:22;;;;;;;26.25;15.60;;;;;;;;;;4993391;28;20502;-69
2023/03/20 02:02:48;;;;;;;49.97;16.33;;;;;;;;;;4993320;28;20042;-69
2023/03/20 02:05:17;;;;;;;79.75;15.02;;;;;;;;;;4993379;28;20041;-69
2023/03/20 02:07:49;;;;;;;68.93;16.23;;;;;;;;;;4993444;28;20427;-69
2023/03/20 02:10:17;;;;;;;94.15;16.50;;;;;;;;;;4993266;28;20026;-69
2023/03/20 02:12:44;;;;;;;36.33;14.98;;;;;;;;;;4993300;28;20077;-69
2023/03/20 02:15:11;;;;;;;60.22;14.35;;;;;;;;;;4993187;28;20089;-69
2023/03/20 02:17:37;;;;;;;77.63;16.10;;;;;;;;;;4993246;28;20026;-69
2023/03/20 02:20:27;;;;;;;28.75;14.93;;;;;;;;;;4993187;28;20403;-69
2023/03/20 02:23:23;;;;;;;44.05;14.38;;;;;;;;;;4993270;28;20034;-69
2023/03/20 02:25:51;;;;;;;43.08;15.32;;;;;;;;;;4993052;28;20022;-69
2023/03/20 02:28:36;;;;;;;33.47;15.43;;;;;;;;;;4993062;28;20029;-69
2023/03/20 02:31:22;;;;;;;46.60;16.50;;;;;;;;;;4993241;28;20113;-69
2023/03/20 02:34:28;;;;;;;83.53;16.95;;;;;;;;;;4993130;28;20034;-69
2023/03/20 02:37:12;;;;;;;26.50;13.95;;;;;;;;;;4996984;28;20030;-69
2023/03/20 02:39:49;;;;;;;58.00;16.40;;;;;;;;;;4996474;28;20057;-69
2023/03/20 02:42:50;;;;;;;44.10;14.95;;;;;;;;;;4996878;28;20034;-69
2023/03/20 02:45:38;;;;;;;24.83;15.82;;;;;;;;;;4996696;28;20031;-70
2023/03/20 02:48:27;;;;;;;26.38;14.25;;;;;;;;;;4936775;29;20050;-70
2023/03/20 02:51:03;;;;;;;20.85;13.50;;;;;;;;;;4936528;29;20063;-69
2023/03/20 02:53:44;;;;;;;23.08;14.18;;;;;;;;;;4947952;29;20042;-69
2023/03/20 02:56:19;;;;;;;20.30;13.80;;;;;;;;;;4955775;29;20114;-69
2023/03/20 02:58:55;;;;;;;20.20;12.88;;;;;;;;;;4955722;29;20062;-69
2023/03/20 03:01:30;;;;;;;16.63;12.45;;;;;;;;;;4955629;29;20035;-70
2023/03/20 03:04:01;;;;;;;18.80;12.77;;;;;;;;;;4955473;29;20158;-69
2023/03/20 03:06:31;;;;;;;18.08;12.32;;;;;;;;;;4955526;29;20077;-70
2023/03/20 03:09:19;;;;;;;18.08;12.95;;;;;;;;;;4955195;29;20031;-69
2023/03/20 03:11:51;;;;;;;17.75;12.93;;;;;;;;;;4955472;29;20079;-69
2023/03/20 03:14:28;;;;;;;18.60;12.18;;;;;;;;;;4939236;29;20481;-69
2023/03/20 03:16:56;;;;;;;20.67;13.32;;;;;;;;;;4955473;29;20038;-69
2023/03/20 03:19:26;;;;;;;18.73;13.32;;;;;;;;;;4955192;29;20452;-69
2023/03/20 03:21:52;;;;;;;18.65;12.95;;;;;;;;;;4955234;29;20090;-69
2023/03/20 03:24:28;;;;;;;17.27;12.85;;;;;;;;;;4961706;28;20050;-69
2023/03/20 03:26:56;;;;;;;16.95;11.70;;;;;;;;;;4996150;28;20030;-69
2023/03/20 03:29:23;;;;;;;18.33;12.23;;;;;;;;;;4995879;28;20039;-69
2023/03/20 03:31:49;;;;;;;20.58;13.43;;;;;;;;;;4995862;28;20031;-69
2023/03/20 03:34:18;;;;;;;22.33;13.70;;;;;;;;;;4995892;28;20027;-69
2023/03/20 03:36:48;;;;;;;19.48;13.52;;;;;;;;;;4995809;28;20121;-69
2023/03/20 03:39:33;;;;;;;21.67;14.23;;;;;;;;;;4995525;28;20407;-69
2023/03/20 03:42:07;;;;;;;19.40;13.63;;;;;;;;;;4995806;28;20030;-69
2023/03/20 03:44:32;;;;;;;29.65;19.25;;;;;;;;;;4995411;28;20475;-69
2023/03/20 03:47:13;;;;;;;23.65;15.18;;;;;;;;;;4995481;28;20035;-70
2023/03/20 03:49:41;;;;;;;;;;;;;;;;;;4995988;28;20468;-69
2023/03/20 03:52:15;;;;;;;23.50;12.85;;;;;;;;;;4994978;28;20290;-69
2023/03/20 03:54:55;;;;;;;23.35;12.93;;;;;;;;;;4995392;28;20069;-69
2023/03/20 03:57:30;;;;;;;21.27;13.77;;;;;;;;;;4995504;28;20084;-69
2023/03/20 03:59:57;;;;;;;26.20;13.35;;;;;;;;;;4995196;28;20113;-69
2023/03/20 04:02:23;;;;;;;17.40;12.10;;;;;;;;;;4995341;28;20018;-69
2023/03/20 04:04:52;;;;;;;17.48;12.35;;;;;;;;;;4995130;28;20022;-69
2023/03/20 04:07:18;;;;;;;16.33;11.88;;;;;;;;;;4977376;28;20388;-69
2023/03/20 04:09:44;;;;;;;17.13;12.07;;;;;;;;;;4995321;28;20068;-69
2023/03/20 04:12:36;;;;;;;17.85;11.75;;;;;;;;;;4995227;28;20022;-69
2023/03/20 04:15:03;;;;;;;19.50;12.25;;;;;;;;;;4977470;28;20022;-69
2023/03/20 04:17:28;;;;;;;17.23;13.02;;;;;;;;;;4994982;28;20499;-69
2023/03/20 04:19:54;;;;;;;20.48;13.50;;;;;;;;;;4994906;28;20034;-69
2023/03/20 04:22:19;;;;;;;18.90;13.43;;;;;;;;;;4994682;28;20026;-69
2023/03/20 04:24:45;;;;;;;19.88;13.38;;;;;;;;;;4977324;28;20074;-69
2023/03/20 04:27:11;;;;;;;17.45;13.02;;;;;;;;;;4994719;28;20369;-69
2023/03/20 04:29:36;;;;;;;21.00;12.27;;;;;;;;;;4994794;28;20023;-69
2023/03/20 04:32:02;;;;;;;21.30;13.38;;;;;;;;;;4994776;28;20357;-69
2023/03/20 04:34:28;;;;;;;19.67;13.43;;;;;;;;;;4994571;28;20369;-69
2023/03/20 04:36:53;;;;;;;16.58;12.13;;;;;;;;;;4994348;28;20105;-69
2023/03/20 04:39:19;;;;;;;25.08;12.88;;;;;;;;;;4994450;28;20026;-69
2023/03/20 04:41:45;;;;;;;18.52;11.45;;;;;;;;;;4994536;28;20508;-69
2023/03/20 04:44:10;;;;;;;16.35;11.65;;;;;;;;;;4994396;28;20023;-70
2023/03/20 04:46:35;;;;;;;16.17;11.65;;;;;;;;;;4994540;28;20130;-69
2023/03/20 04:49:01;;;;;;;18.20;12.15;;;;;;;;;;4994537;28;20137;-69
2023/03/20 04:51:27;;;;;;;16.83;11.57;;;;;;;;;;4993998;28;20129;-69
2023/03/20 04:53:52;;;;;;;17.00;11.60;;;;;;;;;;4994069;28;20056;-70
2023/03/20 04:56:18;;;;;;;17.10;11.52;;;;;;;;;;4994279;28;20105;-70
2023/03/20 04:58:43;;;;;;;16.27;11.73;;;;;;;;;;4993655;28;20113;-69
2023/03/20 05:01:09;;;;;;;19.27;12.57;;;;;;;;;;4994144;28;20388;-69
2023/03/20 05:03:34;;;;;;;17.10;12.70;;;;;;;;;;4994221;28;20534;-69
2023/03/20 05:05:59;;;;;;;14.98;11.82;;;;;;;;;;4993886;28;20110;-68
2023/03/20 05:08:25;;;;;;;21.70;13.15;;;;;;;;;;4994046;28;20471;-69
2023/03/20 05:10:50;;;;;;;17.20;13.13;;;;;;;;;;4994141;28;20397;-69
2023/03/20 05:13:16;;;;;;;20.95;12.82;;;;;;;;;;4993754;28;20022;-69
2023/03/20 05:15:42;;;;;;;18.15;13.73;;;;;;;;;;4993954;28;20054;-69
2023/03/20 05:18:08;;;;;;;24.13;14.45;;;;;;;;;;4993788;28;20487;-69
2023/03/20 05:20:35;;;;;;;22.25;15.60;;;;;;;;;;4993376;28;20041;-69
2023/03/20 05:23:01;;;;;;;21.90;14.38;;;;;;;;;;4993741;28;20030;-69
2023/03/20 05:25:26;;;;;;;20.20;14.15;;;;;;;;;;4993817;28;20030;-69
2023/03/20 05:27:51;;;;;;;21.48;14.50;;;;;;;;;;4993553;28;20494;-69
2023/03/20 05:30:18;;;;;;;23.73;14.77;;;;;;;;;;4993895;28;20167;-69
2023/03/20 05:32:44;;;;;;;24.10;16.05;;;;;;;;;;4993709;28;20113;-69
2023/03/20 05:35:10;;;;;;;26.73;16.55;;;;;;;;;;4993481;28;20054;-69
2023/03/20 05:37:36;;;;;;;24.48;16.20;;;;;;;;;;4993694;28;20038;-69
2023/03/20 05:40:02;;;;;;;28.27;16.23;;;;;;;;;;4993420;28;20030;-68
2023/03/20 05:42:27;;;;;;;27.38;14.18;;;;;;;;;;4993424;28;20424;-69
2023/03/20 05:44:53;;;;;;;19.95;13.68;;;;;;;;;;4993540;28;20026;-69
2023/03/20 05:47:18;;;;;;;22.08;13.85;;;;;;;;;;4993652;28;20042;-69
2023/03/20 05:49:43;;;;;;;20.08;13.88;;;;;;;;;;4993338;28;20038;-69
2023/03/20 05:52:09;;;;;;;24.88;14.07;;;;;;;;;;4992850;28;20050;-69
2023/03/20 05:54:35;;;;;;;24.50;16.25;;;;;;;;;;4993202;28;20030;-69
2023/03/20 05:57:00;;;;;;;32.65;20.45;;;;;;;;;;4993297;28;20030;-69
2023/03/20 05:59:26;;;;;;;26.98;17.05;;;;;;;;;;4993175;28;20031;-69
2023/03/20 06:01:51;;;;;;;25.67;17.05;;;;;;;;;;4993239;28;20070;-69
2023/03/20 06:04:17;;;;;;;24.15;16.02;;;;;;;;;;4992887;28;20109;-69
2023/03/20 06:06:42;;;;;;;25.05;17.00;;;;;;;;;;4993133;28;20065;-69
2023/03/20 06:09:07;;;;;;;25.55;17.90;;;;;;;;;;4994148;28;20026;-69
2023/03/20 06:11:33;;;;;;;25.63;16.70;;;;;;;;;;4997037;28;20089;-69
2023/03/20 06:13:58;;;;;;;25.95;16.42;;;;;;;;;;4996842;28;20026;-69
2023/03/20 06:16:25;;;;;;;24.98;15.80;;;;;;;;;;4996934;28;20153;-69
2023/03/20 06:18:51;;;;;;;27.65;16.98;;;;;;;;;;4996850;28;20042;-69
2023/03/20 06:21:16;;;;;;;24.85;15.60;;;;;;;;;;4996999;28;20022;-69
2023/03/20 06:23:41;;;;;;;24.48;16.23;;;;;;;;;;4996968;28;20444;-70
2023/03/20 06:26:07;;;;;;;27.13;16.33;;;;;;;;;;4996876;28;20506;-69
2023/03/20 06:28:33;;;;;;;38.28;16.35;;;;;;;;;;4996796;28;20114;-69
2023/03/20 06:30:58;;;;;;;99.93;17.83;;;;;;;;;;4996731;28;20022;-70
2023/03/20 06:33:24;;;;;;;42.63;15.73;;;;;;;;;;4996364;28;20096;-70
2023/03/20 06:35:49;;;;;;;73.65;19.73;;;;;;;;;;4996684;28;20023;-70
2023/03/20 06:38:15;;;;;;;53.33;18.83;;;;;;;;;;4996780;28;20014;-69
2023/03/20 06:40:41;;;;;;;97.45;21.83;;;;;;;;;;4996345;28;20467;-69
2023/03/20 06:43:07;;;;;;;55.40;17.23;;;;;;;;;;4996576;28;20127;-70
2023/03/20 06:45:33;;;;;;;67.70;16.83;;;;;;;;;;4996440;28;20026;-70
2023/03/20 06:47:58;;;;;;;75.13;18.85;;;;;;;;;;4996626;28;20479;-69
2023/03/20 06:50:24;;;;;;;51.55;19.15;;;;;;;;;;4996397;28;20026;-69
2023/03/20 06:52:50;;;;;;;57.08;20.35;;;;;;;;;;5002773;28;20529;-70
2023/03/20 06:55:15;;;;;;;58.50;19.75;;;;;;;;;;5015888;28;20033;-69
2023/03/20 06:57:41;;;;;;;76.93;19.58;;;;;;;;;;5016044;28;20037;-69
2023/03/20 07:00:09;;;;;;;52.17;19.67;;;;;;;;;;5015698;28;20444;-69
2023/03/20 07:02:34;;;;;;;45.05;19.58;;;;;;;;;;5015638;28;20471;-69
2023/03/20 07:05:00;;;;;;;43.63;19.30;;;;;;;;;;5015502;28;20079;-69
2023/03/20 07:07:26;;;;;;;36.38;17.48;;;;;;;;;;5015722;28;20025;-70
2023/03/20 07:09:51;;;;;;;51.15;20.63;;;;;;;;;;5015647;28;20036;-70
2023/03/20 07:12:18;;;;;;;54.38;21.77;;;;;;;;;;5015882;28;20081;-70
2023/03/20 07:14:44;;;;;;;67.05;19.25;;;;;;;;;;5015245;28;20116;-69
2023/03/20 07:17:11;;;;;;;51.25;19.15;;;;;;;;;;5015320;28;20168;-70
2023/03/20 07:19:36;;;;;;;36.03;20.60;;;;;;;;;;5015471;28;20022;-69
2023/03/20 07:22:05;;;;;;;42.10;20.10;;;;;;;;;;4997249;28;20144;-69
2023/03/20 07:24:31;;;;;;;43.80;20.30;;;;;;;;;;5015397;28;20025;-70
2023/03/20 07:26:57;;;;;;;57.20;22.77;;;;;;;;;;5015552;28;20049;-70
2023/03/20 07:29:22;;;;;;;46.28;22.92;;;;;;;;;;5014845;28;20467;-70
2023/03/20 07:31:48;;;;;;;37.72;19.80;;;;;;;;;;5015314;28;20076;-70
2023/03/20 07:34:13;;;;;;;39.13;18.73;;;;;;;;;;5015271;28;20091;-70
2023/03/20 07:36:40;;;;;;;40.67;18.95;;;;;;;;;;5015182;28;20034;-69
2023/03/20 07:39:07;;;;;;;31.23;16.85;;;;;;;;;;5014882;28;20026;-70
2023/03/20 07:41:32;;;;;;;31.50;18.63;;;;;;;;;;5014848;28;20370;-70
2023/03/20 07:43:58;;;;;;;35.78;18.35;;;;;;;;;;5014787;28;20105;-70
2023/03/20 07:46:24;;;;;;;32.85;18.30;;;;;;;;;;5014864;28;20036;-69
2023/03/20 07:48:50;;;;;;;29.45;17.45;;;;;;;;;;5015010;28;20030;-69
2023/03/20 07:51:15;;;;;;;30.67;18.50;;;;;;;;;;5014754;28;20052;-69
2023/03/20 07:53:41;;;;;;;32.30;18.67;;;;;;;;;;5001257;28;20030;-70
2023/03/20 07:56:07;;;;;;;32.45;18.45;;;;;;;;;;5013023;28;20509;-69
2023/03/20 07:58:32;;;;;;;35.17;19.30;;;;;;;;;;5014712;28;20045;-69
2023/03/20 08:00:57;;;;;;;37.83;21.13;;;;;;;;;;5005285;28;20030;-69
2023/03/20 08:03:23;;;;;;;53.80;33.35;;;;;;;;;;5014159;28;20030;-70
2023/03/20 08:05:48;;;;;;;39.97;20.23;;;;;;;;;;5014340;28;20030;-70
2023/03/20 08:08:14;;;;;;;41.25;21.88;;;;;;;;;;5014147;28;20112;-70
2023/03/20 08:10:40;;;;;;;40.72;22.45;;;;;;;;;;5014233;28;20636;-69
2023/03/20 08:13:05;;;;;;;39.15;22.08;;;;;;;;;;5013868;28;20483;-69
2023/03/20 08:15:31;;;;;;;36.83;20.00;;;;;;;;;;5014127;28;20468;-69
2023/03/20 08:17:57;;;;;;;39.25;20.52;;;;;;;;;;5013950;28;20490;-69
2023/03/20 08:20:23;;;;;;;36.90;20.52;;;;;;;;;;5013922;28;20064;-69
2023/03/20 08:22:49;;;;;;;36.70;19.75;;;;;;;;;;5013769;28;20065;-69
2023/03/20 08:25:15;;;;;;;37.20;19.15;;;;;;;;;;5013965;28;20030;-69
2023/03/20 08:27:41;;;;;;;37.45;20.25;;;;;;;;;;5013687;28;20030;-69
2023/03/20 08:30:08;;;;;;;40.15;20.83;;;;;;;;;;5013512;28;20072;-69
2023/03/20 08:32:33;;;;;;;45.10;20.55;;;;;;;;;;4984819;28;20049;-69
2023/03/20 08:34:59;;;;;;;40.50;19.85;;;;;;;;;;5005171;28;20030;-69
2023/03/20 08:37:25;;;;;;;43.22;20.42;;;;;;;;;;5007692;28;20062;-69
2023/03/20 08:39:50;;;;;;;40.22;20.67;;;;;;;;;;5013506;28;20034;-70
2023/03/20 08:42:16;;;;;;;46.70;21.33;;;;;;;;;;5013384;28;20083;-69
2023/03/20 08:44:41;;;;;;;42.38;19.30;;;;;;;;;;5012694;28;20030;-69
2023/03/20 08:47:09;;;;;;;47.75;21.00;;;;;;;;;;5002779;28;20030;-70
2023/03/20 08:49:34;;;;;;;48.45;22.15;;;;;;;;;;4997240;28;20468;-69
2023/03/20 08:52:00;;;;;;;43.13;20.63;;;;;;;;;;4993278;28;20062;-69
2023/03/20 08:54:25;;;;;;;43.83;20.60;;;;;;;;;;4993562;28;20030;-69
2023/03/20 08:56:51;;;;;;;43.58;20.45;;;;;;;;;;4993492;28;20026;-69
2023/03/20 08:59:18;;;;;;;37.65;18.90;;;;;;;;;;4993835;28;20050;-69
2023/03/20 09:01:43;;;;;;;36.08;18.75;;;;;;;;;;4993768;28;20081;-69
2023/03/20 09:04:10;;;;;;;35.78;18.00;;;;;;;;;;4993456;28;20034;-69
2023/03/20 09:06:37;;;;;;;39.40;18.92;;;;;;;;;;4993687;28;20383;-69
2023/03/20 09:09:03;;;;;;;35.10;18.15;;;;;;;;;;4993597;28;20031;-70
2023/03/20 09:11:28;;;;;;;33.53;16.67;;;;;;;;;;4993464;28;20403;-69
2023/03/20 09:13:54;;;;;;;30.13;16.23;;;;;;;;;;4993546;28;20430;-69
2023/03/20 09:16:19;;;;;;;26.45;16.02;;;;;;;;;;4993686;28;20038;-69
2023/03/20 09:18:44;;;;;;;28.05;15.27;;;;;;;;;;4993667;28;20365;-69
2023/03/20 09:21:10;;;;;;;25.95;14.15;;;;;;;;;;4993385;28;20041;-69
2023/03/20 09:23:35;;;;;;;24.75;13.23;;;;;;;;;;4993511;28;20026;-69
2023/03/20 09:26:01;;;;;;;26.63;14.38;;;;;;;;;;4993135;28;20461;-69
2023/03/20 09:28:26;;;;;;;26.20;13.68;;;;;;;;;;4993358;28;20494;-69
2023/03/20 09:30:56;;;;;;;21.90;12.77;;;;;;;;;;4993264;28;20474;-69
2023/03/20 09:33:21;;;;;;;23.77;12.23;;;;;;;;;;4993323;28;20081;-69
2023/03/20 09:35:47;;;;;;;28.25;12.75;;;;;;;;;;4993174;28;20034;-70
2023/03/20 09:38:13;;;;;;;24.17;11.93;;;;;;;;;;4993229;28;20033;-69
2023/03/20 09:40:51;;;;;;;25.10;11.45;;;;;;;;;;4992887;28;20101;-69
2023/03/20 09:43:40;;;;;;;25.77;12.93;;;;;;;;;;4993087;28;20023;-69
2023/03/20 09:46:21;;;;;;;26.80;13.00;;;;;;;;;;4993192;28;20077;-69
2023/03/20 09:48:57;;;;;;;24.58;12.77;;;;;;;;;;4993013;28;20476;-69
2023/03/20 09:51:46;;;;;;;28.05;13.82;;;;;;;;;;4992979;28;20065;-69
2023/03/20 09:54:20;;;;;;;25.33;12.73;;;;;;;;;;5027824;28;20069;-69
2023/03/20 09:56:46;;;;;;;25.10;13.18;;;;;;;;;;5032313;28;20493;-69
2023/03/20 09:59:14;;;;;;;27.23;12.90;;;;;;;;;;5032259;28;20026;-70
2023/03/20 10:01:46;;;;;;;27.25;14.18;;;;;;;;;;5032085;28;20386;-69
2023/03/20 10:04:11;;;;;;;25.05;12.07;;;;;;;;;;5032157;28;20351;-70
2023/03/20 10:06:37;;;;;;;30.27;13.93;;;;;;;;;;5024684;28;20025;-70
2023/03/20 10:09:24;;;;;;;29.85;11.32;;;;;;;;;;5012344;28;20034;-69
2023/03/20 10:11:57;;;;;;;22.40;12.77;;;;;;;;;;5012440;28;20026;-69
2023/03/20 10:14:32;;;;;;;24.33;13.38;;;;;;;;;;5012828;28;20151;-69
2023/03/20 10:17:13;;;;;;;28.08;12.88;;;;;;;;;;5012226;28;20033;-69
2023/03/20 10:19:44;;;;;;;27.58;12.82;;;;;;;;;;5012273;28;20056;-69
2023/03/20 10:22:28;;;;;;;22.95;12.15;;;;;;;;;;5012476;28;20053;-69
2023/03/20 10:24:53;;;;;;;38.45;14.00;;;;;;;;;;5012015;28;20447;-69
2023/03/20 10:27:47;;;;;;;26.58;11.85;;;;;;;;;;5012337;28;20026;-69
2023/03/20 10:30:32;;;;;;;24.50;11.82;;;;;;;;;;5012542;28;20053;-69
2023/03/20 10:32:58;;;;;;;23.55;12.60;;;;;;;;;;5012121;28;20030;-69
2023/03/20 10:35:45;;;;;;;26.92;12.48;;;;;;;;;;5012117;28;20041;-69
2023/03/20 10:38:27;;;;;;;25.17;12.15;;;;;;;;;;5011956;28;20088;-69
2023/03/20 10:40:56;;;;;;;32.83;12.52;;;;;;;;;;5012138;28;20497;-69
2023/03/20 10:43:33;;;;;;;25.73;11.85;;;;;;;;;;5012180;28;20054;-69
2023/03/20 10:46:04;;;;;;;33.55;12.90;;;;;;;;;;5011947;28;20467;-69
2023/03/20 10:48:49;;;;;;;;;;;;;;;;;;5013032;28;20034;-69
2023/03/20 10:51:22;;;;;;;20.25;10.07;;;;;;;;;;5011676;28;20366;-69
2023/03/20 10:53:58;;;;;;;26.35;11.00;;;;;;;;;;5011710;28;20105;-69
2023/03/20 10:56:44;;;;;;;19.17;9.52;;;;;;;;;;5013487;28;20034;-69
2023/03/20 10:59:22;;;;;;;27.45;9.73;;;;;;;;;;5015794;28;20032;-69
2023/03/20 11:01:47;;;;;;;16.00;8.40;;;;;;;;;;5015547;28;20080;-69
2023/03/20 11:04:13;;;;;;;18.67;9.18;;;;;;;;;;5015605;28;20494;-69
2023/03/20 11:07:02;;;;;;;24.63;9.30;;;;;;;;;;5014754;28;20026;-70
2023/03/20 11:09:31;;;;;;;21.17;10.85;;;;;;;;;;5015546;28;20145;-67
2023/03/20 11:11:58;;;;;;;29.55;10.48;;;;;;;;;;5015138;28;20029;-67
2023/03/20 11:14:36;;;;;;;24.92;10.05;;;;;;;;;;5015122;28;20541;-67
2023/03/20 11:17:03;;;;;;;18.75;8.95;;;;;;;;;;5015286;28;20367;-70
2023/03/20 11:19:34;;;;;;;23.30;9.57;;;;;;;;;;5015132;28;20036;-70
2023/03/20 11:22:06;;;;;;;26.08;9.63;;;;;;;;;;5014170;28;20042;-69
2023/03/20 11:24:43;;;;;;;21.30;9.25;;;;;;;;;;5014612;28;20025;-67
2023/03/20 11:27:13;;;;;;;22.38;8.85;;;;;;;;;;5014947;28;20061;-67
2023/03/20 11:29:41;;;;;;;22.60;9.13;;;;;;;;;;5014931;28;20021;-67
2023/03/20 11:32:21;;;;;;;20.13;10.23;;;;;;;;;;4996981;28;20030;-68
2023/03/20 11:34:46;;;;;;;17.80;8.77;;;;;;;;;;5014687;28;20084;-68
2023/03/20 11:37:24;;;;;;;20.73;9.38;;;;;;;;;;5014556;28;20419;-67
2023/03/20 11:40:32;;;;;;;15.98;8.63;;;;;;;;;;5014464;28;20065;-68
2023/03/20 11:43:00;;;;;;;19.60;8.60;;;;;;;;;;5014182;28;20034;-68
2023/03/20 11:45:31;;;;;;;16.77;8.15;;;;;;;;;;5014457;28;20029;-68
2023/03/20 11:47:57;;;;;;;16.52;8.15;;;;;;;;;;5014376;28;20022;-68
2023/03/20 11:50:35;;;;;;;16.45;7.60;;;;;;;;;;5014175;28;20476;-68
2023/03/20 11:53:03;;;;;;;16.02;8.50;;;;;;;;;;5022203;28;20034;-68
2023/03/20 11:55:32;;;;;;;19.02;9.05;;;;;;;;;;5034505;28;20029;-68
2023/03/20 11:57:59;;;;;;;19.50;8.15;;;;;;;;;;5034045;28;20466;-69
2023/03/20 12:00:34;;;;;;;17.73;8.52;;;;;;;;;;5033994;28;20029;-68
2023/03/20 12:03:00;;;;;;;18.67;8.65;;;;;;;;;;5034375;28;20360;-67
2023/03/20 12:05:35;;;;;;;17.95;8.52;;;;;;;;;;5033916;28;20040;-68
2023/03/20 12:08:07;;;;;;;18.35;8.82;;;;;;;;;;5034403;28;20125;-69
2023/03/20 12:10:40;;;;;;;20.85;9.23;;;;;;;;;;5033935;28;20099;-68
2023/03/20 12:13:28;;;;;;;22.58;8.50;;;;;;;;;;5034029;28;20076;-68
2023/03/20 12:16:03;;;;;;;15.23;7.55;;;;;;;;;;5033867;28;20029;-69
2023/03/20 12:18:40;;;;;;;19.60;8.77;;;;;;;;;;5016169;28;20382;-68
2023/03/20 12:21:28;;;;;;;18.25;7.70;;;;;;;;;;5033408;28;20029;-69
2023/03/20 12:24:01;;;;;;;22.08;8.40;;;;;;;;;;5020232;28;20046;-69
2023/03/20 12:26:55;;;;;;;15.93;7.97;;;;;;;;;;5033988;28;20119;-68
2023/03/20 12:29:39;;;;;;;14.95;7.82;;;;;;;;;;5033638;28;20026;-68
2023/03/20 12:32:14;;;;;;;17.77;6.53;;;;;;;;;;5033389;28;20390;-69
2023/03/20 12:34:45;;;;;;;16.13;6.43;;;;;;;;;;5033188;28;20095;-69
2023/03/20 12:37:12;;;;;;;15.00;6.60;;;;;;;;;;5015609;28;20024;-68
2023/03/20 12:39:48;;;;;;;13.43;6.27;;;;;;;;;;5033376;28;20026;-69
2023/03/20 12:42:40;;;;;;;14.35;6.90;;;;;;;;;;5033168;28;20168;-69
2023/03/20 12:45:11;;;;;;;12.63;5.75;;;;;;;;;;5016106;28;20155;-68
2023/03/20 12:47:55;;;;;;;15.35;6.50;;;;;;;;;;5033262;28;20025;-69
2023/03/20 12:50:46;;;;;;;13.52;6.05;;;;;;;;;;5032994;28;20029;-69
2023/03/20 12:53:27;;;;;;;11.75;5.75;;;;;;;;;;5033096;28;20045;-68
2023/03/20 12:56:27;;;;;;;;;;;;;;;;;;5033763;28;20475;-68
2023/03/20 12:59:02;;;;;;;12.57;5.05;;;;;;;;;;4933706;29;19921;-68
2023/03/20 13:01:34;;;;;;;7.50;3.38;;;;;;;;;;4933656;29;20035;-68
2023/03/20 13:04:23;;;;;;;7.10;3.13;;;;;;;;;;4933010;29;20091;-69
2023/03/20 13:07:01;;;;;;;6.77;3.40;;;;;;;;;;4933493;29;20446;-68
2023/03/20 13:09:36;;;;;;;7.43;3.90;;;;;;;;;;4933355;29;20071;-68
2023/03/20 13:12:10;;;;;;;6.32;2.97;;;;;;;;;;4933321;29;20123;-70
2023/03/20 13:14:51;;;;;;;6.82;3.38;;;;;;;;;;4933268;29;20129;-70
2023/03/20 13:17:32;;;;;;;6.80;3.17;;;;;;;;;;4933233;29;20035;-71
2023/03/20 13:20:30;;;;;;;;;;;;;;;;;;4933013;29;20050;-74
2023/03/20 13:23:05;;;;;;;7.28;3.00;;;;;;;;;;4914157;29;19967;-69
2023/03/20 13:26:12;;;;;;;7.50;3.88;;;;;;;;;;4914110;29;20051;-72
2023/03/20 13:28:53;;;;;;;10.23;5.03;;;;;;;;;;4858139;29;20038;-70
2023/03/20 13:31:18;;;;;;;;;;;;;;;;;;4858560;29;20078;-70
2023/03/20 13:33:47;;;;;;;8.32;4.95;;;;;;;;;;4921759;29;20035;-68
2023/03/20 13:36:18;;;;;;;9.40;4.43;;;;;;;;;;4932994;29;20119;-68
2023/03/20 13:38:53;;;;;;;10.32;5.07;;;;;;;;;;4933129;29;20075;-68
2023/03/20 13:41:18;;;;;;;7.55;4.05;;;;;;;;;;4917294;29;20043;-68
2023/03/20 13:43:53;;;;;;;7.53;3.72;;;;;;;;;;4932910;29;20048;-68
2023/03/20 13:46:30;;;;;;;9.10;3.75;;;;;;;;;;4932630;29;20036;-68
2023/03/20 13:49:03;;;;;;;9.07;4.20;;;;;;;;;;4923259;29;20423;-68
2023/03/20 13:51:34;;;;;;;6.20;3.58;;;;;;;;;;4913950;29;20047;-68
2023/03/20 13:54:21;;;;;;;7.18;3.53;;;;;;;;;;4913363;29;20039;-68
2023/03/20 13:56:54;;;;;;;9.73;4.43;;;;;;;;;;4913786;29;20027;-68
2023/03/20 13:59:19;;;;;;;7.50;4.38;;;;;;;;;;4929715;29;20047;-68
2023/03/20 14:01:56;;;;;;;8.80;4.25;;;;;;;;;;4932468;29;20128;-68
2023/03/20 14:04:24;;;;;;;7.82;3.97;;;;;;;;;;4966831;28;20041;-68
2023/03/20 14:06:55;;;;;;;8.00;3.90;;;;;;;;;;4992652;28;20145;-69
2023/03/20 14:09:29;;;;;;;5.35;3.10;;;;;;;;;;4992907;28;20472;-70
2023/03/20 14:12:00;;;;;;;10.40;4.90;;;;;;;;;;4992650;28;20018;-70
2023/03/20 14:14:27;;;;;;;;;;;;;;;;;;4993124;28;20030;-70
2023/03/20 14:17:06;;;;;;;8.02;2.92;;;;;;;;;;4992460;28;19909;-70
2023/03/20 14:19:36;;;;;;;8.93;3.70;;;;;;;;;;4992857;28;20526;-69
2023/03/20 14:22:02;;;;;;;6.87;2.63;;;;;;;;;;4992590;28;20441;-69
2023/03/20 14:24:28;;;;;;;6.68;4.65;;;;;;;;;;4992656;28;20065;-69
2023/03/20 14:26:58;;;;;;;5.32;3.20;;;;;;;;;;4992469;28;20542;-70
2023/03/20 14:29:30;;;;;;;4.03;2.78;;;;;;;;;;4992588;28;20038;-69
2023/03/20 14:32:12;;;;;;;4.57;2.80;;;;;;;;;;4994756;28;20077;-68
2023/03/20 14:34:46;;;;;;;7.15;4.32;;;;;;;;;;4996549;28;20026;-67
2023/03/20 14:37:55;;;;;;;6.82;3.17;;;;;;;;;;4996288;28;20384;-69
2023/03/20 14:40:28;;;;;;;4.18;1.77;;;;;;;;;;4996450;28;20053;-68
2023/03/20 14:43:13;;;;;;;4.25;2.20;;;;;;;;;;4996149;28;20106;-69
2023/03/20 14:46:01;;;;;;;6.32;2.80;;;;;;;;;;4978654;28;20026;-69